Airport Information

KPAE - Snohomish Co Airport

KPAE 160653Z AUTO VRB04KT 10SM CLR 07/M03 A2979 RMK AO2 SLP088 T00721033


  • General Information

  • Coordinates: N 47°54'22"/ W 122°16'53"
  • Location: N/A
  • Surveyed Elevation: 606 MSL

Operations

Flow Name Active Runways Conditions

Green background denotes normal operations.


Common Frequencies

Callsign Frequency Position Name

More at the Document Center


Charts